Aérodrome :
LOGIN :

S'inscrire | Disclaimer

   EN    FR    IT 

 










Légende :    VFR   VFR Marginal   IFR   IFR Intensif   IFR Très Intensif
Visi : 
Plafond : 
>= 8 km
>= 3000ft
5 à 8 km
1000 à 3000 ft
1500m à 5 km
500 à 1000 ft
800 à 1500m
200 à 500 ft
< 800m
< 200 ft
Symboles :   Orages  Brouillard  Fortes neiges  Fortes précipitations  Vent > 20 kt
SIGMETs :   Divers  Orages  Givrage  Turbulence  Onde Orograph.  Cendres Volcan.






- Altitude de l'aérodrome : 308 ft
- Code IATA : POZ


EPPO - Poznan-Lawica

DERNIER METAR :
  • 072100Z 27011KT 9999 BKN011 07/06 Q1009

METARs EXPIRÉS :
  • 072030Z 26011KT 9999 -SHRA BKN013CB 07/06 Q1009
  • 072000Z 26010KT 9999 -SHRA FEW010 BKN026CB 07/06 Q1009
  • 071930Z 27011KT 9999 FEW008 BKN014 07/06 Q1008 RESHRA
  • 071900Z 28012KT 5000 SHRA BR FEW007 BKN014CB 07/06 Q1008
  • 071830Z 30013KT 6000 -SHRA SCT007 BKN022CB 07/06 Q1008 RESHRA
  • 071800Z 28010KT 7000 -SHRA BKN008 07/06 Q1008

TAF TAF EPPO
Valide du 07 à 18h jusqu'au 08 à 18h UTC


071730Z 0718/0818 26010KT 9999 BKN023
TEMPO 0718/0722 BKN007 BKN016CB
TEMPO 0722/0807 4000 RA BKN004 OVC010
BECMG 0807/0810 20015KT
TEMPO 0810/0818 20020G30KT
PROB40
TEMPO 0814/0818 BKN013CB



MET'MAP, la Météo Aéronautique d'un coup d'oeil ! - Copyright ORBIFLY Décembre 2007 - Disclaimer

ORBIFLY MET'MAP TEAM :

Programmation & Développement : Alexandra Zaïnal
Sur une idée originale de : Baudouin d'Aumeries
Assistance à la programmation : Marc-Olivier Méhu
Soutien technique & logistique : Manuel Goepfert

Contact : metmap@orbifly.com




SOURCES & CREDITS :

   NOAA